Terminal Aerodrome Forecast
Issued by NWS

Home | Current Version | Previous Version | Text Only | Print | Product List | Glossary On
Versions: 1 2 3 4 5 6 7 8 9 10 11 12 13 14
000
FTUS43 KMPX 300520
TAFRNH
TAF
KRNH 300520Z 3006/3106 28006KT P6SM SCT090
     FM301100 VRB03KT P6SM BKN080
     FM301500 16004KT P6SM VCSH OVC050
     FM301900 17005KT P6SM BKN050=

USA.gov is the U.S. government's official web portal to all federal, state and local government web resources and services.